Terminal Aerodrome Forecast
Issued by NWS

Home | Current Version | Previous Version | Text Only | Print | Product List | Glossary On
Versions: 1 2 3 4 5 6 7 8 9 10 11 12 13 14 15 16 17 18 19 20 21 22
855
FTUS41 KBTV 232339 AAA
TAFSLK
TAF AMD
KSLK 232339Z 2400/2424 24011G19KT 5SM -SHRASN BR SCT009 OVC012
      TEMPO 2400/2403 3SM -SN BR OVC015
     FM240300 24014G22KT 2SM -SHSN BR OVC012
     FM240800 25017G27KT 4SM -SHSN BR OVC018
     FM241200 28010G20KT P6SM VCSH OVC020
     FM241800 29007KT P6SM BKN045=

USA.gov is the U.S. government's official web portal to all federal, state and local government web resources and services.